Terminal Aerodrome Forecast
Issued by NWS

Home | Current Version | Previous Version | Graphics & Text | Print | Product List | Glossary On
Versions: 1 2 3 4 5 6 7 8 9 10 11 12 13 14 15 16 17 18 19 20
267
FTUS41 KCLE 250232 AAA
TAFFDY
TAF AMD
KFDY 250232Z 2503/2524 20020G30KT P6SM VCSH SCT020 OVC060
      TEMPO 2503/2506 26025G35KT 3SM TSRA BKN025CB
     FM250600 24015G25KT P6SM VCSH OVC020
     FM251000 25018G28KT P6SM OVC020
     FM251800 26020G30KT P6SM BKN025=

USA.gov is the U.S. government's official web portal to all federal, state and local government web resources and services.